createdAt,value
2022-11-05T00:01:19.651Z,99520.36
2022-11-05T00:06:41.218Z,99521.89
2022-11-05T00:12:02.688Z,99520.17
2022-11-05T00:17:05.482Z,99513.44
2022-11-05T00:22:27.152Z,99506.25
2022-11-05T00:27:33.186Z,99503.83
2022-11-05T00:32:36.073Z,99488.73
2022-11-05T00:37:38.865Z,99484.38
2022-11-05T00:43:02.120Z,99483.36
2022-11-05T00:48:24.108Z,99483.69
2022-11-05T00:53:26.943Z,99478.98
2022-11-05T00:58:30.215Z,99472.25
2022-11-05T01:03:35.294Z,99470.53
2022-11-05T01:08:38.699Z,99468.13
2022-11-05T01:13:41.594Z,99458.16
2022-11-05T01:18:44.397Z,99456.41
2022-11-05T01:23:47.260Z,99451.89
2022-11-05T01:28:55.095Z,99448.30
2022-11-05T01:34:00.654Z,99448.29
2022-11-05T01:39:04.004Z,99439.55
2022-11-05T01:44:47.161Z,99434.38
2022-11-05T01:49:50.399Z,99436.55
2022-11-05T01:54:53.290Z,99431.60
2022-11-05T02:00:00.104Z,99422.52
2022-11-05T02:05:07.488Z,99417.39
2022-11-05T02:10:14.529Z,99424.38
2022-11-05T02:15:44.878Z,99434.79
2022-11-05T02:20:52.031Z,99435.09
2022-11-05T02:26:27.516Z,99426.41
2022-11-05T02:31:36.310Z,99426.58
2022-11-05T02:37:00.373Z,99428.27
2022-11-05T02:42:39.572Z,99428.59
2022-11-05T02:47:49.797Z,99426.65
2022-11-05T02:53:07.883Z,99427.29
2022-11-05T02:58:11.232Z,99429.73
2022-11-05T03:03:23.148Z,99431.18
2022-11-05T03:08:57.449Z,99447.35
2022-11-05T03:14:29.713Z,99445.26
2022-11-05T03:19:43.697Z,99450.56
2022-11-05T03:24:51.279Z,99451.79
2022-11-05T03:30:00.848Z,99443.38
2022-11-05T03:35:14.869Z,99444.81
2022-11-05T03:40:19.184Z,99439.99
2022-11-05T03:45:31.988Z,99429.76
2022-11-05T03:50:51.633Z,99425.28
2022-11-05T03:56:13.525Z,99428.09
2022-11-05T04:01:16.608Z,99433.63
2022-11-05T04:06:38.173Z,99433.05
2022-11-05T04:12:00.007Z,99437.50
2022-11-05T04:17:11.503Z,99438.15
2022-11-05T04:22:32.976Z,99431.23
2022-11-05T04:27:36.047Z,99424.04
2022-11-05T04:32:38.769Z,99433.23
2022-11-05T04:37:41.516Z,99435.45
2022-11-05T04:42:44.284Z,99437.36
2022-11-05T04:47:47.053Z,99428.52
2022-11-05T04:52:50.149Z,99443.77
2022-11-05T04:57:54.491Z,99455.83
2022-11-05T05:02:57.272Z,99460.94
2022-11-05T05:08:05.514Z,99459.97
2022-11-05T05:13:11.888Z,99468.34
2022-11-05T05:18:14.937Z,99476.20
2022-11-05T05:23:17.797Z,99489.42
2022-11-05T05:28:20.853Z,99503.23
2022-11-05T05:33:23.609Z,99509.40
2022-11-05T05:38:26.401Z,99513.66
2022-11-05T05:43:30.785Z,99504.54
2022-11-05T05:48:34.610Z,99499.41
2022-11-05T05:53:38.796Z,99503.00
2022-11-05T05:58:42.203Z,99504.19
2022-11-05T06:03:44.995Z,99515.73
2022-11-05T06:08:49.194Z,99528.30
2022-11-05T06:13:52.220Z,99530.29
2022-11-05T06:18:55.060Z,99543.17
2022-11-05T06:24:00.134Z,99543.26
2022-11-05T06:29:04.268Z,99536.28
2022-11-05T06:34:07.190Z,99539.28
2022-11-05T06:39:11.399Z,99538.85
2022-11-05T06:44:14.307Z,99554.71
2022-11-05T06:49:17.165Z,99562.92
2022-11-05T06:54:20.100Z,99567.61
2022-11-05T06:59:22.921Z,99571.73
2022-11-05T07:04:25.950Z,99579.84
2022-11-05T07:09:29.484Z,99581.52
2022-11-05T07:14:32.379Z,99585.23
2022-11-05T07:19:35.271Z,99592.08
2022-11-05T07:24:38.064Z,99603.95
2022-11-05T07:29:41.030Z,99608.95
2022-11-05T07:34:45.257Z,99610.22
2022-11-05T07:39:48.036Z,99614.05
2022-11-05T07:44:50.836Z,99622.84
2022-11-05T07:49:53.667Z,99624.65
2022-11-05T07:54:56.535Z,99630.14
2022-11-05T07:59:59.446Z,99638.98
2022-11-05T08:05:04.257Z,99651.27
2022-11-05T08:10:07.907Z,99653.31
2022-11-05T08:15:12.094Z,99664.71
2022-11-05T08:20:16.495Z,99664.25
2022-11-05T08:25:19.347Z,99666.23
2022-11-05T08:30:22.366Z,99674.15
2022-11-05T08:35:26.589Z,99677.20
2022-11-05T08:40:35.058Z,99688.05
2022-11-05T08:45:38.873Z,99691.22
2022-11-05T08:50:42.227Z,99696.55
2022-11-05T08:55:47.646Z,99704.33
2022-11-05T09:00:52.487Z,99702.98
2022-11-05T09:05:55.819Z,99711.00
2022-11-05T09:10:58.659Z,99712.27
2022-11-05T09:16:03.700Z,99717.79
2022-11-05T09:21:07.826Z,99721.44
2022-11-05T09:26:15.252Z,99725.78
2022-11-05T09:31:19.649Z,99729.16
2022-11-05T09:36:22.440Z,99737.59
2022-11-05T09:41:32.214Z,99750.73
2022-11-05T09:46:58.727Z,99752.02
2022-11-05T09:52:02.602Z,99750.34
2022-11-05T09:57:08.031Z,99759.98
2022-11-05T10:02:17.101Z,99763.85
2022-11-05T10:07:38.037Z,99765.72
2022-11-05T10:12:50.362Z,99778.94
2022-11-05T10:18:19.272Z,99782.89
2022-11-05T10:23:23.476Z,99780.38
2022-11-05T10:28:31.008Z,99786.71
2022-11-05T10:33:50.663Z,99798.11
2022-11-05T10:39:00.125Z,99806.79
2022-11-05T10:44:33.414Z,99813.59
2022-11-05T10:49:51.252Z,99815.23
2022-11-05T10:55:01.009Z,99824.83
2022-11-05T11:00:16.804Z,99832.70
2022-11-05T11:05:40.292Z,99837.81
2022-11-05T11:10:57.624Z,99851.59
2022-11-05T11:16:20.737Z,99855.06
2022-11-05T11:21:24.263Z,99861.36
2022-11-05T11:26:32.201Z,99860.79
2022-11-05T11:31:39.851Z,99867.37
2022-11-05T11:36:48.989Z,99876.49
2022-11-05T11:41:55.103Z,99886.76
2022-11-05T11:47:03.907Z,99883.84
2022-11-05T11:52:29.626Z,99879.83
2022-11-05T11:57:53.334Z,99878.76
2022-11-05T12:03:41.092Z,99879.09
2022-11-05T12:09:03.643Z,99895.27
2022-11-05T12:14:45.158Z,99894.58
2022-11-05T12:20:08.153Z,99886.66
2022-11-05T12:25:36.630Z,99887.98
2022-11-05T12:31:17.353Z,99889.52
2022-11-05T12:36:39.027Z,99893.45
2022-11-05T12:42:09.707Z,99901.20
2022-11-05T12:47:21.631Z,99909.66
2022-11-05T12:52:33.652Z,99912.02
2022-11-05T12:57:43.160Z,99919.46
2022-11-05T13:03:07.137Z,99924.70
2022-11-05T13:08:41.751Z,99938.48
2022-11-05T13:14:19.881Z,99942.94
2022-11-05T13:19:40.675Z,99945.09
2022-11-05T13:24:53.152Z,99952.41
2022-11-05T13:30:02.502Z,99961.58
2022-11-05T13:35:13.515Z,99965.16
2022-11-05T13:40:22.547Z,99974.13
2022-11-05T13:46:05.396Z,99987.45
2022-11-05T13:51:24.894Z,99998.47
2022-11-05T13:56:42.602Z,100003.04
2022-11-05T14:01:49.943Z,100013.63
2022-11-05T14:06:53.885Z,100011.02
2022-11-05T14:11:59.194Z,100019.92
2022-11-05T14:17:07.832Z,100033.07
2022-11-05T14:22:38.403Z,100043.05
2022-11-05T14:27:51.028Z,100052.29
2022-11-05T14:33:04.364Z,100055.10
2022-11-05T14:38:26.445Z,100066.00
2022-11-05T14:43:33.860Z,100067.73
2022-11-05T14:48:53.943Z,100069.11
2022-11-05T14:54:29.588Z,100073.58
2022-11-05T14:59:52.236Z,100069.41
2022-11-05T15:05:36.044Z,100072.67
2022-11-05T15:10:40.658Z,100072.62
2022-11-05T15:15:47.048Z,100075.46
2022-11-05T15:20:54.814Z,100080.24
2022-11-05T15:26:16.217Z,100086.59
2022-11-05T15:31:36.337Z,100085.91
2022-11-05T15:36:40.328Z,100093.90
2022-11-05T15:41:43.142Z,100098.08
2022-11-05T15:46:45.992Z,100093.14
2022-11-05T15:51:48.782Z,100097.15
2022-11-05T15:56:54.731Z,100099.70
2022-11-05T16:02:13.821Z,100107.72
2022-11-05T16:07:18.201Z,100112.12
2022-11-05T16:12:21.145Z,100124.98
2022-11-05T16:17:27.423Z,100128.59
2022-11-05T16:22:43.106Z,100145.73
2022-11-05T16:27:46.505Z,100161.86
2022-11-05T16:32:49.654Z,100175.61
2022-11-05T16:37:52.855Z,100184.00
2022-11-05T16:43:00.850Z,100186.10
2022-11-05T16:48:03.920Z,100181.95
2022-11-05T16:53:06.809Z,100188.26
2022-11-05T16:58:22.729Z,100197.17
2022-11-05T17:03:25.888Z,100205.77
2022-11-05T17:08:28.733Z,100211.96
2022-11-05T17:13:32.038Z,100217.73
2022-11-05T17:18:34.946Z,100218.78
2022-11-05T17:23:38.150Z,100222.27
2022-11-05T17:28:41.419Z,100227.92
2022-11-05T17:33:44.449Z,100231.75
2022-11-05T17:38:47.279Z,100239.85
2022-11-05T17:43:55.697Z,100249.17
2022-11-05T17:48:58.494Z,100256.44
2022-11-05T17:54:01.427Z,100265.34
2022-11-05T17:59:04.270Z,100277.61
2022-11-05T18:04:08.902Z,100282.39
2022-11-05T18:09:13.233Z,100285.39
2022-11-05T18:14:21.324Z,100290.55
2022-11-05T18:19:27.861Z,100286.45
2022-11-05T18:24:30.679Z,100291.11
2022-11-05T18:29:33.605Z,100298.38
2022-11-05T18:34:36.401Z,100304.89
2022-11-05T18:39:39.647Z,100308.24
2022-11-05T18:44:42.512Z,100309.65
2022-11-05T18:49:45.315Z,100316.99
2022-11-05T18:54:48.084Z,100319.84
2022-11-05T18:59:52.161Z,100318.85
2022-11-05T19:05:26.881Z,100324.83
2022-11-05T19:10:17.841Z,100327.19
2022-11-05T19:15:20.672Z,100330.55
2022-11-05T19:20:23.542Z,100328.16
2022-11-05T19:25:26.463Z,100335.55
2022-11-05T19:30:31.291Z,100340.95
2022-11-05T19:35:39.913Z,100337.52
2022-11-05T19:40:44.184Z,100342.92
2022-11-05T19:45:47.169Z,100350.74
2022-11-05T19:50:50.102Z,100350.94
2022-11-05T19:55:52.931Z,100353.36
2022-11-05T20:00:56.133Z,100356.66
2022-11-05T20:06:04.856Z,100358.95
2022-11-05T20:11:09.220Z,100362.84
2022-11-05T20:16:28.519Z,100364.63
2022-11-05T20:21:32.009Z,100372.39
2022-11-05T20:26:35.350Z,100367.79
2022-11-05T20:31:38.118Z,100372.66
2022-11-05T20:36:41.475Z,100376.86
2022-11-05T20:41:44.297Z,100380.06
2022-11-05T20:46:54.243Z,100380.98
2022-11-05T20:51:57.451Z,100380.81
2022-11-05T20:57:00.467Z,100383.77
2022-11-05T21:02:04.059Z,100386.77
2022-11-05T21:07:07.084Z,100388.90
2022-11-05T21:12:12.795Z,100395.04
2022-11-05T21:17:15.593Z,100398.27
2022-11-05T21:22:18.459Z,100402.70
2022-11-05T21:27:21.239Z,100404.64
2022-11-05T21:32:24.024Z,100403.44
2022-11-05T21:37:26.845Z,100410.76
2022-11-05T21:42:30.058Z,100411.48
2022-11-05T21:47:33.004Z,100410.70
2022-11-05T21:52:59.101Z,100416.90
2022-11-05T21:58:29.699Z,100417.71
2022-11-05T22:03:32.962Z,100419.84
2022-11-05T22:08:38.088Z,100423.17
2022-11-05T22:13:40.873Z,100424.66
2022-11-05T22:18:43.781Z,100427.54
2022-11-05T22:23:46.590Z,100427.77
2022-11-05T22:28:49.451Z,100428.19
2022-11-05T22:33:52.812Z,100439.34
2022-11-05T22:38:55.575Z,100447.52
2022-11-05T22:44:00.379Z,100447.59
2022-11-05T22:49:03.625Z,100453.88
2022-11-05T22:54:07.622Z,100459.47
2022-11-05T22:59:15.361Z,100460.72
2022-11-05T23:04:18.180Z,100460.92
2022-11-05T23:09:41.247Z,100463.21
2022-11-05T23:14:44.048Z,100464.16
2022-11-05T23:20:05.660Z,100465.45
2022-11-05T23:25:11.203Z,100466.53
2022-11-05T23:30:17.502Z,100471.59
2022-11-05T23:35:43.086Z,100474.05
2022-11-05T23:41:04.727Z,100475.80
2022-11-05T23:46:27.218Z,100475.14
2022-11-05T23:51:29.950Z,100477.39
2022-11-05T23:56:33.016Z,100476.58
